createdAt,value
2018-04-15T00:00:51.207Z,1006.80
2018-04-15T00:01:51.265Z,1006.73
2018-04-15T00:02:51.325Z,1006.71
2018-04-15T00:03:51.390Z,1006.73
2018-04-15T00:04:51.449Z,1006.74
2018-04-15T00:05:51.507Z,1006.73
2018-04-15T00:06:51.568Z,1006.72
2018-04-15T00:07:51.628Z,1006.71
2018-04-15T00:08:51.687Z,1006.74
2018-04-15T00:09:51.749Z,1006.73
2018-04-15T00:10:51.811Z,1006.73
2018-04-15T00:11:51.871Z,1006.73
2018-04-15T00:12:51.929Z,1006.74
2018-04-15T00:13:51.990Z,1006.69
2018-04-15T00:14:52.051Z,1006.70
2018-04-15T00:15:52.111Z,1006.66
2018-04-15T00:16:52.171Z,1006.66
2018-04-15T00:17:52.231Z,1006.65
2018-04-15T00:18:52.293Z,1006.66
2018-04-15T00:19:52.351Z,1006.64
2018-04-15T00:20:52.413Z,1006.64
2018-04-15T00:21:52.473Z,1006.65
2018-04-15T00:22:52.535Z,1006.66
2018-04-15T00:23:52.595Z,1006.67
2018-04-15T00:24:52.654Z,1006.70
2018-04-15T00:25:52.714Z,1006.69
2018-04-15T00:26:52.775Z,1006.67
2018-04-15T00:27:52.835Z,1006.65
2018-04-15T00:28:52.894Z,1006.69
2018-04-15T00:29:52.955Z,1006.68
2018-04-15T00:30:53.017Z,1006.69
2018-04-15T00:31:53.076Z,1006.68
2018-04-15T00:32:53.135Z,1006.65
2018-04-15T00:33:53.194Z,1006.64
2018-04-15T00:34:53.256Z,1006.60
2018-04-15T00:35:53.315Z,1006.57
2018-04-15T00:36:53.378Z,1006.58
2018-04-15T00:37:53.435Z,1006.57
2018-04-15T00:38:53.496Z,1006.55
2018-04-15T00:39:53.555Z,1006.52
2018-04-15T00:40:53.619Z,1006.49
2018-04-15T00:41:53.675Z,1006.49
2018-04-15T00:42:53.734Z,1006.48
2018-04-15T00:43:53.794Z,1006.50
2018-04-15T00:44:53.853Z,1006.50
2018-04-15T00:45:53.913Z,1006.49
2018-04-15T00:46:53.974Z,1006.50
2018-04-15T00:47:54.038Z,1006.48
2018-04-15T00:48:54.095Z,1006.46
2018-04-15T00:49:54.154Z,1006.45
2018-04-15T00:50:54.212Z,1006.42
2018-04-15T00:51:54.273Z,1006.44
2018-04-15T00:52:54.332Z,1006.44
2018-04-15T00:53:54.393Z,1006.46
2018-04-15T00:54:54.452Z,1006.44
2018-04-15T00:55:54.512Z,1006.47
2018-04-15T00:56:54.571Z,1006.45
2018-04-15T00:57:54.632Z,1006.46
2018-04-15T00:58:54.694Z,1006.44
2018-04-15T00:59:54.752Z,1006.44
2018-04-15T01:00:54.812Z,1006.43
2018-04-15T01:01:54.871Z,1006.46
2018-04-15T01:02:54.931Z,1006.41
2018-04-15T01:03:54.991Z,1006.40
2018-04-15T01:04:55.050Z,1006.42
2018-04-15T01:05:55.111Z,1006.40
2018-04-15T01:06:55.170Z,1006.39
2018-04-15T01:07:55.230Z,1006.36
2018-04-15T01:08:55.289Z,1006.38
2018-04-15T01:09:55.348Z,1006.34
2018-04-15T01:10:55.408Z,1006.35
2018-04-15T01:11:55.474Z,1006.37
2018-04-15T01:12:55.527Z,1006.35
2018-04-15T01:13:55.592Z,1006.40
2018-04-15T01:14:55.647Z,1006.36
2018-04-15T01:15:55.706Z,1006.39
2018-04-15T01:16:55.766Z,1006.37
2018-04-15T01:17:55.824Z,1006.32
2018-04-15T01:18:55.885Z,1006.35
2018-04-15T01:19:55.944Z,1006.34
2018-04-15T01:20:56.005Z,1006.34
2018-04-15T01:21:56.065Z,1006.32
2018-04-15T01:22:56.124Z,1006.30
2018-04-15T01:23:56.183Z,1006.32
2018-04-15T01:24:56.242Z,1006.29
2018-04-15T01:25:56.302Z,1006.29
2018-04-15T01:26:56.363Z,1006.29
2018-04-15T01:27:56.423Z,1006.30
2018-04-15T01:28:56.480Z,1006.25
2018-04-15T01:29:56.543Z,1006.27
2018-04-15T01:30:56.601Z,1006.24
2018-04-15T01:31:56.912Z,1006.23
2018-04-15T01:32:56.723Z,1006.21
2018-04-15T01:33:56.781Z,1006.25
2018-04-15T01:34:56.840Z,1006.23
2018-04-15T01:35:56.901Z,1006.20
2018-04-15T01:36:56.960Z,1006.18
2018-04-15T01:37:57.021Z,1006.17
2018-04-15T01:38:57.079Z,1006.17
2018-04-15T01:39:57.140Z,1006.17
2018-04-15T01:40:57.199Z,1006.21
2018-04-15T01:41:57.259Z,1006.21
2018-04-15T01:42:57.318Z,1006.17
2018-04-15T01:43:57.378Z,1006.15
2018-04-15T01:44:57.439Z,1006.15
2018-04-15T01:45:57.501Z,1006.17
2018-04-15T01:46:57.557Z,1006.15
2018-04-15T01:47:57.618Z,1006.17
2018-04-15T01:48:57.827Z,1006.13
2018-04-15T01:49:57.735Z,1006.16
2018-04-15T01:50:57.796Z,1006.15
2018-04-15T01:51:57.855Z,1006.15
2018-04-15T01:52:57.914Z,1006.12
2018-04-15T01:53:57.974Z,1006.13
2018-04-15T01:54:58.035Z,1006.16
2018-04-15T01:55:58.094Z,1006.15
2018-04-15T01:56:58.154Z,1006.15
2018-04-15T01:57:58.213Z,1006.17
2018-04-15T01:58:58.274Z,1006.17
2018-04-15T01:59:58.333Z,1006.14
2018-04-15T02:00:58.393Z,1006.17
2018-04-15T02:01:58.453Z,1006.17
2018-04-15T02:02:58.512Z,1006.20
2018-04-15T02:03:58.575Z,1006.21
2018-04-15T02:04:58.632Z,1006.21
2018-04-15T02:05:58.692Z,1006.24
2018-04-15T02:06:58.755Z,1006.25
2018-04-15T02:07:58.812Z,1006.26
2018-04-15T02:08:58.871Z,1006.24
2018-04-15T02:09:58.932Z,1006.25
2018-04-15T02:10:59.250Z,1006.26
2018-04-15T02:11:59.052Z,1006.26
2018-04-15T02:12:59.110Z,1006.22
2018-04-15T02:13:59.171Z,1006.22
2018-04-15T02:14:59.231Z,1006.20
2018-04-15T02:15:59.291Z,1006.22
2018-04-15T02:16:59.350Z,1006.22
2018-04-15T02:17:59.409Z,1006.22
2018-04-15T02:18:59.470Z,1006.20
2018-04-15T02:19:59.531Z,1006.21
2018-04-15T02:20:59.588Z,1006.22
2018-04-15T02:21:59.650Z,1006.21
2018-04-15T02:22:59.708Z,1006.22
2018-04-15T02:23:59.769Z,1006.21
2018-04-15T02:24:59.827Z,1006.20
2018-04-15T02:25:59.887Z,1006.18
2018-04-15T02:26:59.946Z,1006.17
2018-04-15T02:28:00.007Z,1006.13
2018-04-15T02:29:00.069Z,1006.13
2018-04-15T02:30:00.125Z,1006.13
2018-04-15T02:31:00.186Z,1006.09
2018-04-15T02:32:00.246Z,1006.15
2018-04-15T02:33:00.306Z,1006.08
2018-04-15T02:34:00.364Z,1006.06
2018-04-15T02:35:00.425Z,1006.04
2018-04-15T02:36:00.486Z,1005.99
2018-04-15T02:37:00.544Z,1006.01
2018-04-15T02:38:00.603Z,1006.00
2018-04-15T02:39:00.662Z,1006.00
2018-04-15T02:40:00.723Z,1006.02
2018-04-15T02:41:00.781Z,1006.01
2018-04-15T02:42:00.841Z,1005.96
2018-04-15T02:43:00.906Z,1005.92
2018-04-15T02:44:00.962Z,1005.91
2018-04-15T02:45:01.021Z,1005.90
2018-04-15T02:46:01.080Z,1005.92
2018-04-15T02:47:01.140Z,1005.90
2018-04-15T02:48:01.200Z,1005.85
2018-04-15T02:49:01.259Z,1005.87
2018-04-15T02:50:01.320Z,1005.85
2018-04-15T02:51:01.383Z,1005.85
2018-04-15T02:52:01.438Z,1005.87
2018-04-15T02:53:01.497Z,1005.88
2018-04-15T02:54:01.557Z,1005.91
2018-04-15T02:55:01.618Z,1005.88
2018-04-15T02:56:01.928Z,1005.91
2018-04-15T02:57:01.736Z,1005.89
2018-04-15T02:58:01.796Z,1005.88
2018-04-15T02:59:01.857Z,1005.93
2018-04-15T03:00:01.916Z,1005.88
2018-04-15T03:01:01.976Z,1005.92
2018-04-15T03:02:02.037Z,1005.91
2018-04-15T03:03:02.095Z,1005.92
2018-04-15T03:04:02.158Z,1005.91
2018-04-15T03:05:02.215Z,1005.88
2018-04-15T03:06:02.274Z,1005.90
2018-04-15T03:07:02.333Z,1005.88
2018-04-15T03:08:02.395Z,1005.89
2018-04-15T03:09:02.455Z,1005.88
2018-04-15T03:10:02.514Z,1005.83
2018-04-15T03:11:02.573Z,1005.83
2018-04-15T03:12:02.634Z,1005.77
2018-04-15T03:13:02.942Z,1005.79
2018-04-15T03:14:02.752Z,1005.80
2018-04-15T03:15:02.811Z,1005.76
2018-04-15T03:16:02.871Z,1005.77
2018-04-15T03:17:02.932Z,1005.76
2018-04-15T03:18:02.990Z,1005.77
2018-04-15T03:19:03.050Z,1005.75
2018-04-15T03:20:03.110Z,1005.76
2018-04-15T03:21:03.172Z,1005.75
2018-04-15T03:22:03.232Z,1005.72
2018-04-15T03:23:03.290Z,1005.76
2018-04-15T03:24:03.600Z,1005.73
2018-04-15T03:25:03.408Z,1005.72
2018-04-15T03:26:03.469Z,1005.70
2018-04-15T03:27:03.532Z,1005.73
2018-04-15T03:28:03.590Z,1005.69
2018-04-15T03:29:03.649Z,1005.66
2018-04-15T03:30:03.714Z,1005.66
2018-04-15T03:31:03.769Z,1005.65
2018-04-15T03:32:03.828Z,1005.66
2018-04-15T03:33:03.887Z,1005.64
2018-04-15T03:34:03.947Z,1005.65
2018-04-15T03:35:04.008Z,1005.65
2018-04-15T03:36:04.066Z,1005.70
2018-04-15T03:37:04.125Z,1005.69
2018-04-15T03:38:04.187Z,1005.67
2018-04-15T03:39:04.247Z,1005.67
2018-04-15T03:40:04.307Z,1005.68
2018-04-15T03:41:04.368Z,1005.70
2018-04-15T03:42:04.425Z,1005.68
2018-04-15T03:43:04.484Z,1005.69
2018-04-15T03:44:04.546Z,1005.67
2018-04-15T03:45:04.605Z,1005.67
2018-04-15T03:46:04.664Z,1005.68
2018-04-15T03:47:04.723Z,1005.72
2018-04-15T03:48:04.784Z,1005.70
2018-04-15T03:49:04.843Z,1005.69
2018-04-15T03:50:04.902Z,1005.68
2018-04-15T03:51:04.962Z,1005.67
2018-04-15T03:52:05.024Z,1005.68
2018-04-15T03:53:05.083Z,1005.73
2018-04-15T03:54:05.143Z,1005.75
2018-04-15T03:55:05.201Z,1005.74
2018-04-15T03:56:05.263Z,1005.77
2018-04-15T03:57:05.328Z,1005.75
2018-04-15T03:58:05.381Z,1005.78
2018-04-15T03:59:05.441Z,1005.74
2018-04-15T04:00:05.502Z,1005.68
2018-04-15T04:01:05.586Z,1005.66
2018-04-15T04:02:05.621Z,1005.64
2018-04-15T04:03:05.681Z,1005.64
2018-04-15T04:04:05.740Z,1005.66
2018-04-15T04:05:05.799Z,1005.68
2018-04-15T04:06:05.859Z,1005.66
2018-04-15T04:07:05.919Z,1005.66
2018-04-15T04:08:05.978Z,1005.68
2018-04-15T04:09:06.288Z,1005.69
2018-04-15T04:10:06.097Z,1005.68
2018-04-15T04:11:06.157Z,1005.67
2018-04-15T04:12:06.218Z,1005.71
2018-04-15T04:13:06.277Z,1005.72
2018-04-15T04:14:06.336Z,1005.67
2018-04-15T04:15:06.396Z,1005.65
2018-04-15T04:16:06.457Z,1005.67
2018-04-15T04:17:06.516Z,1005.68
2018-04-15T04:18:06.575Z,1005.71
2018-04-15T04:19:06.634Z,1005.69
2018-04-15T04:20:06.694Z,1005.69
2018-04-15T04:21:06.754Z,1005.71
2018-04-15T04:22:06.819Z,1005.71
2018-04-15T04:23:06.874Z,1005.71
2018-04-15T04:24:06.934Z,1005.67
2018-04-15T04:25:06.993Z,1005.68
2018-04-15T04:26:07.054Z,1005.71
2018-04-15T04:27:07.117Z,1005.66
2018-04-15T04:28:07.173Z,1005.69
2018-04-15T04:29:07.232Z,1005.68
2018-04-15T04:30:07.293Z,1005.70
2018-04-15T04:31:07.355Z,1005.65
2018-04-15T04:32:07.413Z,1005.65
2018-04-15T04:33:07.471Z,1005.62
2018-04-15T04:34:07.531Z,1005.62
2018-04-15T04:35:07.592Z,1005.56
2018-04-15T04:36:07.656Z,1005.56
2018-04-15T04:37:07.711Z,1005.49
2018-04-15T04:38:07.777Z,1005.51
2018-04-15T04:39:07.832Z,1005.50
2018-04-15T04:40:07.891Z,1005.46
2018-04-15T04:41:07.949Z,1005.46
2018-04-15T04:42:08.010Z,1005.42
2018-04-15T04:43:08.070Z,1005.44
2018-04-15T04:44:08.130Z,1005.40
2018-04-15T04:45:08.190Z,1005.46
2018-04-15T04:46:08.249Z,1005.44
2018-04-15T04:47:08.316Z,1005.47
2018-04-15T04:48:08.369Z,1005.47
2018-04-15T04:49:08.429Z,1005.44
2018-04-15T04:50:08.491Z,1005.45
2018-04-15T04:51:08.549Z,1005.49
2018-04-15T04:52:08.610Z,1005.46
2018-04-15T04:53:08.668Z,1005.48
2018-04-15T04:54:08.727Z,1005.45
2018-04-15T04:55:08.788Z,1005.44
2018-04-15T04:56:08.848Z,1005.41
2018-04-15T04:57:08.908Z,1005.42
2018-04-15T04:58:08.968Z,1005.41
2018-04-15T04:59:09.029Z,1005.42
2018-04-15T05:00:09.126Z,1005.41
2018-04-15T05:01:09.147Z,1005.42
2018-04-15T05:02:09.208Z,1005.46
2018-04-15T05:03:09.268Z,1005.43
2018-04-15T05:04:09.333Z,1005.49
2018-04-15T05:05:09.388Z,1005.43
2018-04-15T05:06:09.449Z,1005.41
2018-04-15T05:07:09.508Z,1005.42
2018-04-15T05:08:09.567Z,1005.38
2018-04-15T05:09:09.627Z,1005.35
2018-04-15T05:10:09.686Z,1005.32
2018-04-15T05:11:09.746Z,1005.30
2018-04-15T05:12:09.809Z,1005.28
2018-04-15T05:13:09.867Z,1005.26
2018-04-15T05:14:09.926Z,1005.25
2018-04-15T05:15:09.986Z,1005.24
2018-04-15T05:16:10.046Z,1005.23
2018-04-15T05:17:10.306Z,1005.19
2018-04-15T05:18:10.164Z,1005.21
2018-04-15T05:19:10.225Z,1005.19
2018-04-15T05:20:10.286Z,1005.20
2018-04-15T05:21:10.345Z,1005.19
2018-04-15T05:22:10.406Z,1005.17
2018-04-15T05:23:10.466Z,1005.14
2018-04-15T05:24:10.526Z,1005.16
2018-04-15T05:25:10.588Z,1005.19
2018-04-15T05:26:10.645Z,1005.17
2018-04-15T05:27:10.707Z,1005.14
2018-04-15T05:28:10.764Z,1005.10
2018-04-15T05:29:10.824Z,1005.10
2018-04-15T05:30:10.885Z,1005.05
2018-04-15T05:31:10.944Z,1005.08
2018-04-15T05:32:11.045Z,1005.05
2018-04-15T05:33:11.065Z,1005.09
2018-04-15T05:34:11.124Z,1005.10
2018-04-15T05:35:11.185Z,1005.10
2018-04-15T05:36:11.246Z,1005.08
2018-04-15T05:37:11.306Z,1005.11
2018-04-15T05:38:11.365Z,1005.08
2018-04-15T05:39:11.426Z,1005.04
2018-04-15T05:40:11.485Z,1005.07
2018-04-15T05:41:11.544Z,1005.05
2018-04-15T05:42:11.605Z,1005.03
2018-04-15T05:43:11.665Z,1004.96
2018-04-15T05:44:11.725Z,1004.97
2018-04-15T05:45:11.786Z,1004.95
2018-04-15T05:46:11.845Z,1004.96
2018-04-15T05:47:11.905Z,1004.93
2018-04-15T05:48:11.965Z,1004.93
2018-04-15T05:49:12.024Z,1004.93
2018-04-15T05:50:12.084Z,1004.90
2018-04-15T05:51:12.145Z,1004.89
2018-04-15T05:52:12.204Z,1004.88
2018-04-15T05:53:12.264Z,1004.86
2018-04-15T05:54:12.324Z,1004.88
2018-04-15T05:55:12.384Z,1004.85
2018-04-15T05:56:12.442Z,1004.88
2018-04-15T05:57:12.503Z,1004.86
2018-04-15T05:58:12.561Z,1004.86
2018-04-15T05:59:12.639Z,1004.82
2018-04-15T06:00:12.695Z,1004.79
2018-04-15T06:01:12.784Z,1004.82
2018-04-15T06:02:12.800Z,1004.82
2018-04-15T06:03:12.862Z,1004.82
2018-04-15T06:04:12.920Z,1004.78
2018-04-15T06:05:13.006Z,1004.79
2018-04-15T06:06:13.040Z,1004.79
2018-04-15T06:07:13.100Z,1004.76
2018-04-15T06:08:13.163Z,1004.75
2018-04-15T06:09:13.218Z,1004.75
2018-04-15T06:10:13.279Z,1004.73
2018-04-15T06:11:13.338Z,1004.71
2018-04-15T06:12:13.401Z,1004.70
2018-04-15T06:13:13.457Z,1004.71
2018-04-15T06:14:13.769Z,1004.70
2018-04-15T06:15:13.577Z,1004.72
2018-04-15T06:16:13.637Z,1004.69
2018-04-15T06:17:13.697Z,1004.69
2018-04-15T06:18:13.755Z,1004.71
2018-04-15T06:19:13.816Z,1004.67
2018-04-15T06:20:13.876Z,1004.69
2018-04-15T06:21:13.934Z,1004.70
2018-04-15T06:22:13.995Z,1004.66
2018-04-15T06:23:14.056Z,1004.65
2018-04-15T06:24:14.115Z,1004.64
2018-04-15T06:25:14.173Z,1004.64
2018-04-15T06:26:14.234Z,1004.63
2018-04-15T06:27:14.295Z,1004.65
2018-04-15T06:28:14.353Z,1004.65
2018-04-15T06:29:14.413Z,1004.68
2018-04-15T06:30:14.476Z,1004.67
2018-04-15T06:31:14.533Z,1004.70
2018-04-15T06:32:14.593Z,1004.68
2018-04-15T06:33:14.653Z,1004.69
2018-04-15T06:34:14.713Z,1004.67
2018-04-15T06:35:14.770Z,1004.67
2018-04-15T06:36:15.396Z,1004.66
2018-04-15T06:37:14.890Z,1004.68
2018-04-15T06:38:14.950Z,1004.67
2018-04-15T06:39:15.362Z,1004.62
2018-04-15T06:40:15.072Z,1004.64
2018-04-15T06:41:15.130Z,1004.65
2018-04-15T06:42:15.189Z,1004.64
2018-04-15T06:43:15.501Z,1004.67
2018-04-15T06:44:15.644Z,1004.64
2018-04-15T06:45:15.382Z,1004.71
2018-04-15T06:46:15.429Z,1004.70
2018-04-15T06:47:15.490Z,1004.68
2018-04-15T06:48:15.551Z,1004.68
2018-04-15T06:49:15.958Z,1004.71
2018-04-15T06:50:15.669Z,1004.70
2018-04-15T06:51:15.731Z,1004.73
2018-04-15T06:52:15.790Z,1004.70
2018-04-15T06:53:15.850Z,1004.72
2018-04-15T06:54:15.959Z,1004.69
2018-04-15T06:55:15.986Z,1004.68
2018-04-15T06:56:16.036Z,1004.72
2018-04-15T06:57:16.109Z,1004.72
2018-04-15T06:58:16.152Z,1004.68
2018-04-15T06:59:16.229Z,1004.69
2018-04-15T07:00:16.273Z,1004.70
2018-04-15T07:01:16.333Z,1004.68
2018-04-15T07:02:16.395Z,1004.68
2018-04-15T07:03:16.455Z,1004.73
2018-04-15T07:04:16.906Z,1004.72
2018-04-15T07:05:16.576Z,1004.72
2018-04-15T07:06:16.642Z,1004.70
2018-04-15T07:07:16.698Z,1004.67
2018-04-15T07:08:16.759Z,1004.65
2018-04-15T07:09:16.826Z,1004.69
2018-04-15T07:10:16.880Z,1004.66
2018-04-15T07:11:16.942Z,1004.62
2018-04-15T07:12:17.005Z,1004.61
2018-04-15T07:13:17.064Z,1004.62
2018-04-15T07:14:17.438Z,1004.63
2018-04-15T07:15:17.187Z,1004.63
2018-04-15T07:16:17.248Z,1004.51
2018-04-15T07:17:17.310Z,1004.52
2018-04-15T07:18:17.371Z,1004.55
2018-04-15T07:19:17.443Z,1004.51
2018-04-15T07:20:17.494Z,1004.48
2018-04-15T07:21:17.554Z,1004.53
2018-04-15T07:22:17.616Z,1004.52
2018-04-15T07:23:17.676Z,1004.51
2018-04-15T07:24:17.738Z,1004.55
2018-04-15T07:25:17.800Z,1004.54
2018-04-15T07:26:17.861Z,1004.54
2018-04-15T07:27:17.923Z,1004.52
2018-04-15T07:28:17.985Z,1004.54
2018-04-15T07:29:18.045Z,1004.58
2018-04-15T07:30:18.108Z,1004.56
2018-04-15T07:31:18.167Z,1004.56
2018-04-15T07:32:18.228Z,1004.55
2018-04-15T07:33:18.290Z,1004.52
2018-04-15T07:34:18.671Z,1004.48
2018-04-15T07:35:18.414Z,1004.47
2018-04-15T07:36:18.476Z,1004.45
2018-04-15T07:37:18.537Z,1004.44
2018-04-15T07:38:18.597Z,1004.47
2018-04-15T07:39:18.662Z,1004.48
2018-04-15T07:40:18.722Z,1004.49
2018-04-15T07:41:18.783Z,1004.48
2018-04-15T07:42:18.844Z,1004.46
2018-04-15T07:43:18.969Z,1004.50
2018-04-15T07:44:18.968Z,1004.50
2018-04-15T07:45:19.029Z,1004.50
2018-04-15T07:46:19.090Z,1004.49
2018-04-15T07:47:19.155Z,1004.50
2018-04-15T07:48:19.216Z,1004.43
2018-04-15T07:49:19.277Z,1004.43
2018-04-15T07:50:19.339Z,1004.45
2018-04-15T07:51:19.404Z,1004.48
2018-04-15T07:52:19.464Z,1004.53
2018-04-15T07:53:19.526Z,1004.58
2018-04-15T07:54:19.594Z,1004.54
2018-04-15T07:55:19.649Z,1004.53
2018-04-15T07:56:19.711Z,1004.51
2018-04-15T07:57:19.772Z,1004.52
2018-04-15T07:58:19.835Z,1004.48
2018-04-15T07:59:19.897Z,1004.49
2018-04-15T08:00:19.961Z,1004.44
2018-04-15T08:01:20.185Z,1004.34
2018-04-15T08:02:20.114Z,1004.38
2018-04-15T08:03:20.147Z,1004.33
2018-04-15T08:04:20.213Z,1004.35
2018-04-15T08:05:20.275Z,1004.39
2018-04-15T08:06:20.343Z,1004.38
2018-04-15T08:07:20.397Z,1004.40
2018-04-15T08:08:20.461Z,1004.42
2018-04-15T08:09:20.523Z,1004.37
2018-04-15T08:10:20.587Z,1004.36
2018-04-15T08:11:20.649Z,1004.35
2018-04-15T08:12:20.714Z,1004.35
2018-04-15T08:13:20.774Z,1004.36
2018-04-15T08:14:21.251Z,1004.35
2018-04-15T08:15:20.901Z,1004.39
2018-04-15T08:16:20.964Z,1004.38
2018-04-15T08:17:21.024Z,1004.40
2018-04-15T08:18:21.088Z,1004.43
2018-04-15T08:19:21.152Z,1004.42
2018-04-15T08:20:21.215Z,1004.46
2018-04-15T08:21:21.277Z,1004.45
2018-04-15T08:22:21.338Z,1004.45
2018-04-15T08:23:21.402Z,1004.44
2018-04-15T08:24:21.467Z,1004.42
2018-04-15T08:25:21.527Z,1004.45
2018-04-15T08:26:21.592Z,1004.43
2018-04-15T08:27:21.655Z,1004.40
2018-04-15T08:28:21.718Z,1004.39
2018-04-15T08:29:21.779Z,1004.44
2018-04-15T08:30:21.844Z,1004.47
2018-04-15T08:31:21.907Z,1004.49
2018-04-15T08:32:21.971Z,1004.45
2018-04-15T08:33:22.033Z,1004.47
2018-04-15T08:34:22.101Z,1004.45
2018-04-15T08:35:22.160Z,1004.45
2018-04-15T08:36:22.225Z,1004.44
2018-04-15T08:37:22.287Z,1004.42
2018-04-15T08:38:22.351Z,1004.40
2018-04-15T08:39:22.415Z,1004.36
2018-04-15T08:40:22.479Z,1004.36
2018-04-15T08:41:22.541Z,1004.39
2018-04-15T08:42:22.606Z,1004.40
2018-04-15T08:43:22.675Z,1004.37
2018-04-15T08:44:22.734Z,1004.27
2018-04-15T08:45:22.798Z,1004.28
2018-04-15T08:46:22.860Z,1004.23
2018-04-15T08:47:22.926Z,1004.24
2018-04-15T08:48:22.989Z,1004.20
2018-04-15T08:49:23.063Z,1004.20
2018-04-15T08:50:23.118Z,1004.17
2018-04-15T08:51:23.182Z,1004.15
2018-04-15T08:52:23.245Z,1004.17
2018-04-15T08:53:23.309Z,1004.14
2018-04-15T08:54:23.372Z,1004.12
2018-04-15T08:55:23.470Z,1004.15
2018-04-15T08:56:23.505Z,1004.18
2018-04-15T08:57:23.584Z,1004.17
2018-04-15T08:58:23.648Z,1004.17
2018-04-15T08:59:23.694Z,1004.13
2018-04-15T09:00:23.755Z,1004.07
2018-04-15T09:01:23.822Z,1004.07
2018-04-15T09:02:23.884Z,1004.04
2018-04-15T09:03:23.948Z,1004.00
2018-04-15T09:04:24.010Z,1004.02
2018-04-15T09:05:24.073Z,1003.98
2018-04-15T09:06:24.137Z,1004.02
2018-04-15T09:07:24.201Z,1003.99
2018-04-15T09:08:24.926Z,1003.97
2018-04-15T09:09:24.380Z,1003.95
2018-04-15T09:10:24.390Z,1003.90
2018-04-15T09:11:24.453Z,1003.94
2018-04-15T09:12:24.519Z,1003.89
2018-04-15T09:13:24.579Z,1003.91
2018-04-15T09:14:24.644Z,1003.88
2018-04-15T09:15:24.707Z,1003.90
2018-04-15T09:16:24.921Z,1003.84
2018-04-15T09:17:24.832Z,1003.81
2018-04-15T09:18:24.897Z,1003.79
2018-04-15T09:19:24.967Z,1003.80
2018-04-15T09:20:25.023Z,1003.92
2018-04-15T09:21:25.085Z,1003.93
2018-04-15T09:22:25.149Z,1003.90
2018-04-15T09:23:25.214Z,1003.85
2018-04-15T09:24:25.306Z,1003.83
2018-04-15T09:25:25.339Z,1003.87
2018-04-15T09:26:25.466Z,1003.81
2018-04-15T09:27:25.465Z,1003.78
2018-04-15T09:28:25.530Z,1003.71
2018-04-15T09:29:25.592Z,1003.72
2018-04-15T09:30:25.656Z,1003.69
2018-04-15T09:31:25.721Z,1003.67
2018-04-15T09:32:26.096Z,1003.67
2018-04-15T09:33:25.848Z,1003.69
2018-04-15T09:34:25.916Z,1003.69
2018-04-15T09:35:25.978Z,1003.70
2018-04-15T09:36:26.042Z,1003.72
2018-04-15T09:37:26.105Z,1003.72
2018-04-15T09:38:26.169Z,1003.78
2018-04-15T09:39:26.961Z,1003.79
2018-04-15T09:40:26.297Z,1003.74
2018-04-15T09:41:26.362Z,1003.75
2018-04-15T09:42:26.432Z,1003.68
2018-04-15T09:43:26.489Z,1003.68
2018-04-15T09:44:26.555Z,1003.72
2018-04-15T09:45:26.868Z,1003.67
2018-04-15T09:46:26.722Z,1003.70
2018-04-15T09:47:26.746Z,1003.68
2018-04-15T09:48:26.810Z,1003.72
2018-04-15T09:49:26.874Z,1003.79
2018-04-15T09:50:26.939Z,1003.85
2018-04-15T09:51:27.003Z,1003.87
2018-04-15T09:52:27.066Z,1003.93
2018-04-15T09:53:27.130Z,1003.88
2018-04-15T09:54:27.536Z,1003.84
2018-04-15T09:55:27.271Z,1003.83
2018-04-15T09:56:27.324Z,1003.75
2018-04-15T09:57:27.389Z,1003.73
2018-04-15T09:58:27.453Z,1003.78
2018-04-15T09:59:27.517Z,1003.76
2018-04-15T10:00:27.582Z,1003.77
2018-04-15T10:01:27.648Z,1003.82
2018-04-15T10:02:27.712Z,1003.80
2018-04-15T10:03:27.776Z,1003.80
2018-04-15T10:04:27.842Z,1003.80
2018-04-15T10:05:27.906Z,1003.77
2018-04-15T10:06:27.970Z,1003.70
2018-04-15T10:07:28.036Z,1003.74
2018-04-15T10:08:28.101Z,1003.74
2018-04-15T10:09:28.164Z,1003.77
2018-04-15T10:10:28.231Z,1003.70
2018-04-15T10:11:28.295Z,1003.67
2018-04-15T10:12:28.359Z,1003.72
2018-04-15T10:13:28.424Z,1003.64
2018-04-15T10:14:28.490Z,1003.67
2018-04-15T10:15:28.554Z,1003.72
2018-04-15T10:16:28.620Z,1003.71
2018-04-15T10:17:28.683Z,1003.74
2018-04-15T10:18:28.748Z,1003.73
2018-04-15T10:19:28.815Z,1003.71
2018-04-15T10:20:28.879Z,1003.80
2018-04-15T10:21:28.943Z,1003.78
2018-04-15T10:22:29.011Z,1003.81
2018-04-15T10:23:29.072Z,1003.83
2018-04-15T10:24:29.169Z,1003.79
2018-04-15T10:25:29.202Z,1003.80
2018-04-15T10:26:29.267Z,1003.80
2018-04-15T10:27:29.331Z,1003.78
2018-04-15T10:28:29.397Z,1003.68
2018-04-15T10:29:29.459Z,1003.67
2018-04-15T10:30:29.526Z,1003.68
2018-04-15T10:31:29.590Z,1003.70
2018-04-15T10:32:29.656Z,1003.75
2018-04-15T10:33:29.719Z,1003.65
2018-04-15T10:34:29.783Z,1003.60
2018-04-15T10:35:29.848Z,1003.57
2018-04-15T10:36:29.915Z,1003.54
2018-04-15T10:37:29.982Z,1003.60
2018-04-15T10:38:30.044Z,1003.71
2018-04-15T10:39:30.112Z,1003.59
2018-04-15T10:40:30.176Z,1003.58
2018-04-15T10:41:30.242Z,1003.60
2018-04-15T10:42:30.307Z,1003.92
2018-04-15T10:43:30.374Z,1004.27
2018-04-15T10:44:30.440Z,1004.33
2018-04-15T10:45:30.504Z,1004.20
2018-04-15T10:46:30.572Z,1004.31
2018-04-15T10:47:30.637Z,1004.20
2018-04-15T10:48:30.704Z,1003.59
2018-04-15T10:49:30.769Z,1003.46
2018-04-15T10:50:30.836Z,1003.44
2018-04-15T10:51:30.904Z,1003.45
2018-04-15T10:52:30.971Z,1003.45
2018-04-15T10:53:31.036Z,1003.48
2018-04-15T10:54:31.102Z,1003.50
2018-04-15T10:55:31.169Z,1003.56
2018-04-15T10:56:31.236Z,1003.57
2018-04-15T10:57:31.302Z,1003.74
2018-04-15T10:58:31.368Z,1003.74
2018-04-15T10:59:31.434Z,1003.70
2018-04-15T11:00:31.503Z,1003.63
2018-04-15T11:01:31.566Z,1003.54
2018-04-15T11:02:31.630Z,1003.47
2018-04-15T11:03:31.697Z,1003.49
2018-04-15T11:04:31.763Z,1003.49
2018-04-15T11:05:31.827Z,1003.49
2018-04-15T11:06:31.893Z,1003.52
2018-04-15T11:07:31.961Z,1003.56
2018-04-15T11:08:32.025Z,1003.49
2018-04-15T11:09:32.092Z,1003.41
2018-04-15T11:10:32.156Z,1003.37
2018-04-15T11:11:32.222Z,1003.37
2018-04-15T11:12:32.286Z,1003.38
2018-04-15T11:13:32.351Z,1003.34
2018-04-15T11:14:32.416Z,1003.41
2018-04-15T11:15:32.517Z,1003.52
2018-04-15T11:16:32.548Z,1003.52
2018-04-15T11:17:32.611Z,1003.90
2018-04-15T11:18:32.678Z,1004.29
2018-04-15T11:19:32.742Z,1003.58
2018-04-15T11:20:32.808Z,1004.51
2018-04-15T11:21:32.887Z,1003.60
2018-04-15T11:22:32.938Z,1003.41
2018-04-15T11:23:33.004Z,1003.41
2018-04-15T11:24:33.068Z,1003.92
2018-04-15T11:25:33.132Z,1003.32
2018-04-15T11:26:33.198Z,1003.29
2018-04-15T11:27:33.274Z,1003.33
2018-04-15T11:28:33.330Z,1003.39
2018-04-15T11:29:33.396Z,1003.32
2018-04-15T11:30:33.462Z,1003.28
2018-04-15T11:31:33.530Z,1003.32
2018-04-15T11:32:33.605Z,1003.36
2018-04-15T11:33:33.659Z,1005.55
2018-04-15T11:34:33.724Z,1004.77
2018-04-15T11:35:33.789Z,1005.08
2018-04-15T11:36:33.855Z,1004.31
2018-04-15T11:37:33.921Z,1004.51
2018-04-15T11:38:33.988Z,1006.01
2018-04-15T11:39:34.054Z,1005.81
2018-04-15T11:40:34.122Z,1005.78
2018-04-15T11:41:34.187Z,1005.69
2018-04-15T11:42:34.255Z,1006.01
2018-04-15T11:43:34.326Z,1005.77
2018-04-15T11:44:34.394Z,1005.64
2018-04-15T11:45:34.464Z,1005.74
2018-04-15T11:46:35.531Z,1005.82
2018-04-15T11:47:35.257Z,1005.65
2018-04-15T11:48:35.368Z,1003.46
2018-04-15T11:49:35.466Z,1003.34
2018-04-15T11:50:34.806Z,1003.39
2018-04-15T11:51:34.901Z,1004.95
2018-04-15T11:52:34.945Z,1005.73
2018-04-15T11:53:35.017Z,1005.40
2018-04-15T11:54:35.085Z,1005.22
2018-04-15T11:55:35.155Z,1005.37
2018-04-15T11:56:35.225Z,1003.77
2018-04-15T11:57:35.295Z,1003.78
2018-04-15T11:58:35.375Z,1003.69
2018-04-15T11:59:35.437Z,1004.72
2018-04-15T12:00:35.507Z,1004.99
2018-04-15T12:01:35.575Z,1004.55
2018-04-15T12:02:35.646Z,1004.64
2018-04-15T12:03:35.719Z,1004.11
2018-04-15T12:04:35.789Z,1004.36
2018-04-15T12:05:35.858Z,1004.94
2018-04-15T12:06:35.929Z,1005.84